createdAt,value
2019-03-20T00:00:45.680Z,95557.03
2019-03-20T00:03:12.344Z,95557.27
2019-03-20T00:05:38.987Z,95558.91
2019-03-20T00:08:05.633Z,95560.44
2019-03-20T00:10:32.272Z,95562.19
2019-03-20T00:12:58.950Z,95549.72
2019-03-20T00:15:25.592Z,95559.41
2019-03-20T00:17:52.280Z,95556.27
2019-03-20T00:20:18.924Z,95560.43
2019-03-20T00:22:45.563Z,95562.59
2019-03-20T00:25:12.209Z,95566.88
2019-03-20T00:27:38.845Z,95560.69
2019-03-20T00:30:05.497Z,95565.75
2019-03-20T00:32:32.186Z,95568.03
2019-03-20T00:35:01.122Z,95571.16
2019-03-20T00:37:25.464Z,95570.16
2019-03-20T00:39:52.125Z,95575.70
2019-03-20T00:42:18.770Z,95576.94
2019-03-20T00:44:45.406Z,95579.98
2019-03-20T00:47:12.114Z,95582.25
2019-03-20T00:49:38.755Z,95581.34
2019-03-20T00:52:05.398Z,95584.02
2019-03-20T00:54:32.060Z,95580.20
2019-03-20T00:56:58.703Z,95575.56
2019-03-20T00:59:25.342Z,95577.95
2019-03-20T01:01:51.996Z,95578.97
2019-03-20T01:04:18.640Z,95572.13
2019-03-20T01:06:45.323Z,95565.58
2019-03-20T01:09:11.919Z,95572.13
2019-03-20T01:11:38.652Z,95570.64
2019-03-20T01:14:05.298Z,95569.74
2019-03-20T01:16:31.949Z,95570.52
2019-03-20T01:18:58.596Z,95574.03
2019-03-20T01:21:25.238Z,95576.56
2019-03-20T01:23:51.874Z,95565.33
2019-03-20T01:26:18.531Z,95572.41
2019-03-20T01:28:45.223Z,95568.98
2019-03-20T01:31:11.878Z,95567.98
2019-03-20T01:33:38.522Z,95573.66
2019-03-20T01:36:05.183Z,95581.84
2019-03-20T01:38:31.823Z,95574.53
2019-03-20T01:41:01.586Z,95577.55
2019-03-20T01:43:28.235Z,95582.34
2019-03-20T01:45:54.890Z,95585.11
2019-03-20T01:48:21.537Z,95588.51
2019-03-20T01:50:48.182Z,95591.67
2019-03-20T01:53:14.874Z,95579.56
2019-03-20T01:55:41.519Z,95587.99
2019-03-20T01:58:08.176Z,95591.26
2019-03-20T02:00:34.810Z,95588.87
2019-03-20T02:03:01.455Z,95600.98
2019-03-20T02:05:35.659Z,95597.95
2019-03-20T02:07:54.728Z,95599.09
2019-03-20T02:10:21.372Z,95603.11
2019-03-20T02:12:48.022Z,95600.96
2019-03-20T02:15:14.680Z,95610.42
2019-03-20T02:17:41.413Z,95612.05
2019-03-20T02:20:08.154Z,95616.34
2019-03-20T02:22:34.814Z,95611.42
2019-03-20T02:25:01.477Z,95616.94
2019-03-20T02:27:28.113Z,95611.16
2019-03-20T02:29:54.762Z,95614.93
2019-03-20T02:32:21.410Z,95612.27
2019-03-20T02:34:48.149Z,95615.45
2019-03-20T02:37:14.690Z,95616.20
2019-03-20T02:39:41.343Z,95613.05
2019-03-20T02:42:07.981Z,95612.50
2019-03-20T02:44:34.617Z,95615.80
2019-03-20T02:47:01.264Z,95607.86
2019-03-20T02:49:27.912Z,95618.81
2019-03-20T02:51:54.556Z,95624.48
2019-03-20T02:54:21.218Z,95618.04
2019-03-20T02:56:47.883Z,95621.85
2019-03-20T02:59:14.520Z,95623.20
2019-03-20T03:01:41.171Z,95624.59
2019-03-20T03:04:07.810Z,95610.80
2019-03-20T03:06:34.458Z,95627.98
2019-03-20T03:09:01.128Z,95621.64
2019-03-20T03:11:27.791Z,95626.66
2019-03-20T03:13:54.431Z,95623.38
2019-03-20T03:16:21.239Z,95625.80
2019-03-20T03:18:47.869Z,95636.84
2019-03-20T03:21:14.510Z,95629.58
2019-03-20T03:23:41.190Z,95634.06
2019-03-20T03:26:07.831Z,95640.47
2019-03-20T03:28:34.502Z,95640.52
2019-03-20T03:31:01.154Z,95640.27
2019-03-20T03:33:27.794Z,95638.98
2019-03-20T03:35:54.464Z,95645.77
2019-03-20T03:38:21.095Z,95649.16
2019-03-20T03:40:47.740Z,95652.97
2019-03-20T03:43:14.421Z,95658.63
2019-03-20T03:45:41.070Z,95656.60
2019-03-20T03:48:07.708Z,95656.85
2019-03-20T03:50:34.448Z,95658.22
2019-03-20T03:53:01.100Z,95665.00
2019-03-20T03:55:27.747Z,95670.92
2019-03-20T03:57:54.407Z,95672.06
2019-03-20T04:00:21.067Z,95675.42
2019-03-20T04:02:47.802Z,95671.69
2019-03-20T04:05:14.439Z,95673.17
2019-03-20T04:07:41.083Z,95677.25
2019-03-20T04:10:07.720Z,95675.72
2019-03-20T04:12:34.366Z,95681.55
2019-03-20T04:15:01.022Z,95681.59
2019-03-20T04:17:27.711Z,95684.88
2019-03-20T04:19:54.303Z,95675.56
2019-03-20T04:22:20.949Z,95684.88
2019-03-20T04:24:47.589Z,95686.97
2019-03-20T04:27:14.263Z,95690.45
2019-03-20T04:29:40.923Z,95691.55
2019-03-20T04:32:07.588Z,95691.19
2019-03-20T04:34:34.271Z,95700.69
2019-03-20T04:37:01.018Z,95704.92
2019-03-20T04:39:27.666Z,95698.02
2019-03-20T04:41:54.316Z,95700.84
2019-03-20T04:44:20.962Z,95706.22
2019-03-20T04:46:47.603Z,95710.09
2019-03-20T04:49:14.258Z,95719.10
2019-03-20T04:51:40.904Z,95720.01
2019-03-20T04:54:07.546Z,95721.02
2019-03-20T04:56:34.198Z,95717.49
2019-03-20T04:59:00.854Z,95706.69
2019-03-20T05:01:27.508Z,95725.87
2019-03-20T05:03:54.149Z,95730.42
2019-03-20T05:06:20.834Z,95735.02
2019-03-20T05:08:47.472Z,95740.58
2019-03-20T05:11:14.254Z,95741.09
2019-03-20T05:13:40.905Z,95749.41
2019-03-20T05:16:07.585Z,95751.23
2019-03-20T05:18:34.239Z,95756.03
2019-03-20T05:21:00.874Z,95764.22
2019-03-20T05:23:27.514Z,95770.67
2019-03-20T05:25:54.166Z,95772.45
2019-03-20T05:28:20.815Z,95777.91
2019-03-20T05:30:47.671Z,95776.86
2019-03-20T05:33:14.312Z,95782.98
2019-03-20T05:35:40.966Z,95784.86
2019-03-20T05:38:07.600Z,95791.92
2019-03-20T05:40:34.299Z,95789.83
2019-03-20T05:43:00.994Z,95791.61
2019-03-20T05:45:27.636Z,95796.58
2019-03-20T05:47:54.283Z,95786.73
2019-03-20T05:50:20.975Z,95803.90
2019-03-20T05:52:47.611Z,95807.06
2019-03-20T05:55:14.263Z,95802.52
2019-03-20T05:57:40.939Z,95811.61
2019-03-20T06:00:07.590Z,95814.45
2019-03-20T06:02:34.280Z,95812.69
2019-03-20T06:05:00.918Z,95823.69
2019-03-20T06:07:27.605Z,95812.86
2019-03-20T06:09:54.262Z,95815.89
2019-03-20T06:12:20.897Z,95822.47
2019-03-20T06:14:47.746Z,95828.23
2019-03-20T06:17:14.382Z,95825.35
2019-03-20T06:19:41.047Z,95825.36
2019-03-20T06:22:07.759Z,95823.23
2019-03-20T06:24:34.421Z,95817.17
2019-03-20T06:27:01.085Z,95828.31
2019-03-20T06:29:27.721Z,95829.34
2019-03-20T06:31:54.372Z,95831.36
2019-03-20T06:34:21.026Z,95833.04
2019-03-20T06:36:50.669Z,95834.91
2019-03-20T06:39:18.539Z,95835.05
2019-03-20T06:41:44.014Z,95840.49
2019-03-20T06:44:10.659Z,95838.25
2019-03-20T06:46:37.313Z,95840.80
2019-03-20T06:49:03.966Z,95838.78
2019-03-20T06:51:30.618Z,95839.03
2019-03-20T06:53:57.280Z,95843.58
2019-03-20T06:56:23.926Z,95837.39
2019-03-20T06:58:50.592Z,95839.27
2019-03-20T07:01:17.354Z,95851.77
2019-03-20T07:03:44.011Z,95840.53
2019-03-20T07:06:13.457Z,95847.61
2019-03-20T07:08:40.153Z,95844.94
2019-03-20T07:11:06.784Z,95841.42
2019-03-20T07:13:33.489Z,95849.86
2019-03-20T07:16:00.127Z,95854.92
2019-03-20T07:18:26.769Z,95855.81
2019-03-20T07:20:53.430Z,95848.84
2019-03-20T07:23:20.151Z,95852.40
2019-03-20T07:25:46.821Z,95847.59
2019-03-20T07:28:13.472Z,95848.10
2019-03-20T07:30:40.235Z,95850.63
2019-03-20T07:33:06.921Z,95836.46
2019-03-20T07:35:33.560Z,95845.03
2019-03-20T07:38:00.242Z,95852.59
2019-03-20T07:40:26.923Z,95856.27
2019-03-20T07:42:53.571Z,95839.08
2019-03-20T07:45:20.232Z,95846.37
2019-03-20T07:47:46.895Z,95845.61
2019-03-20T07:50:13.543Z,95846.87
2019-03-20T07:52:40.221Z,95843.69
2019-03-20T07:55:06.860Z,95844.83
2019-03-20T07:57:33.532Z,95837.85
2019-03-20T08:00:00.314Z,95838.23
2019-03-20T08:02:26.966Z,95844.14
2019-03-20T08:04:53.597Z,95848.36
2019-03-20T08:07:20.261Z,95845.05
2019-03-20T08:09:46.995Z,95839.09
2019-03-20T08:12:13.695Z,95839.33
2019-03-20T08:14:40.452Z,95835.14
2019-03-20T08:17:07.296Z,95843.76
2019-03-20T08:19:34.039Z,95841.20
2019-03-20T08:22:00.704Z,95839.16
2019-03-20T08:24:27.398Z,95835.88
2019-03-20T08:26:54.048Z,95807.38
2019-03-20T08:29:20.706Z,95840.16
2019-03-20T08:31:47.378Z,95843.44
2019-03-20T08:34:15.005Z,95841.30
2019-03-20T08:36:41.690Z,95844.91
2019-03-20T08:39:08.382Z,95838.28
2019-03-20T08:41:35.040Z,95835.23
2019-03-20T08:44:04.156Z,95830.92
2019-03-20T08:46:30.810Z,95827.72
2019-03-20T08:48:57.502Z,95831.53
2019-03-20T08:51:24.187Z,95828.48
2019-03-20T08:53:50.958Z,95834.83
2019-03-20T08:56:17.672Z,95831.14
2019-03-20T08:58:44.456Z,95823.44
2019-03-20T09:01:11.090Z,95822.11
2019-03-20T09:03:37.732Z,95801.79
2019-03-20T09:06:05.576Z,95828.08
2019-03-20T09:08:32.325Z,95828.19
2019-03-20T09:11:03.970Z,95826.45
2019-03-20T09:13:30.627Z,95826.52
2019-03-20T09:15:57.297Z,95826.77
2019-03-20T09:18:23.994Z,95824.22
2019-03-20T09:20:50.650Z,95805.27
2019-03-20T09:23:17.305Z,95816.87
2019-03-20T09:25:46.994Z,95819.34
2019-03-20T09:28:15.146Z,95818.14
2019-03-20T09:30:41.854Z,95819.94
2019-03-20T09:33:08.500Z,95816.68
2019-03-20T09:35:35.160Z,95806.28
2019-03-20T09:38:03.946Z,95816.22
2019-03-20T09:40:30.583Z,95813.05
2019-03-20T09:42:58.756Z,95821.58
2019-03-20T09:45:25.522Z,95814.95
2019-03-20T09:47:52.180Z,95819.11
2019-03-20T09:50:18.876Z,95819.66
2019-03-20T09:52:45.568Z,95814.83
2019-03-20T09:55:12.217Z,95813.71
2019-03-20T09:57:38.867Z,95807.63
2019-03-20T10:00:05.502Z,95810.75
2019-03-20T10:02:32.204Z,95802.44
2019-03-20T10:04:58.856Z,95799.18
2019-03-20T10:07:25.507Z,95798.09
2019-03-20T10:09:52.276Z,95800.05
2019-03-20T10:12:19.031Z,95798.79
2019-03-20T10:14:45.727Z,95796.11
2019-03-20T10:17:12.376Z,95805.08
2019-03-20T10:19:39.043Z,95803.38
2019-03-20T10:22:05.682Z,95803.63
2019-03-20T10:24:32.379Z,95800.24
2019-03-20T10:26:59.024Z,95804.52
2019-03-20T10:29:25.667Z,95797.94
2019-03-20T10:31:52.321Z,95792.16
2019-03-20T10:34:18.972Z,95794.88
2019-03-20T10:36:45.624Z,95793.91
2019-03-20T10:39:12.404Z,95785.40
2019-03-20T10:41:39.010Z,95787.17
2019-03-20T10:44:05.640Z,95787.27
2019-03-20T10:46:32.384Z,95775.52
2019-03-20T10:48:59.066Z,95778.16
2019-03-20T10:51:25.758Z,95770.23
2019-03-20T10:53:52.468Z,95774.38
2019-03-20T10:56:19.112Z,95777.17
2019-03-20T10:58:45.803Z,95774.96
2019-03-20T11:01:12.840Z,95765.72
2019-03-20T11:03:39.525Z,95767.49
2019-03-20T11:06:06.172Z,95763.66
2019-03-20T11:08:32.834Z,95768.34
2019-03-20T11:10:59.512Z,95766.17
2019-03-20T11:13:26.175Z,95759.20
2019-03-20T11:15:52.831Z,95760.66
2019-03-20T11:18:19.507Z,95760.16
2019-03-20T11:20:46.157Z,95755.82
2019-03-20T11:23:12.865Z,95743.97
2019-03-20T11:25:39.517Z,95740.67
2019-03-20T11:28:06.167Z,95748.72
2019-03-20T11:30:33.112Z,95744.77
2019-03-20T11:32:59.827Z,95750.75
2019-03-20T11:35:26.478Z,95742.33
2019-03-20T11:37:53.194Z,95747.78
2019-03-20T11:40:20.983Z,95735.01
2019-03-20T11:42:47.641Z,95741.78
2019-03-20T11:45:14.298Z,95739.89
2019-03-20T11:47:41.002Z,95739.63
2019-03-20T11:50:07.733Z,95739.27
2019-03-20T11:52:34.396Z,95739.02
2019-03-20T11:55:02.478Z,95735.77
2019-03-20T11:57:27.756Z,95726.23
2019-03-20T11:59:54.443Z,95729.45
2019-03-20T12:02:27.970Z,95734.84
2019-03-20T12:04:48.455Z,95736.39
2019-03-20T12:07:15.170Z,95730.36
2019-03-20T12:09:41.831Z,95727.33
2019-03-20T12:12:08.534Z,95731.23
2019-03-20T12:14:35.312Z,95728.28
2019-03-20T12:17:02.059Z,95734.02
2019-03-20T12:19:28.726Z,95726.56
2019-03-20T12:21:55.404Z,95728.77
2019-03-20T12:24:22.130Z,95726.38
2019-03-20T12:26:48.917Z,95715.28
2019-03-20T12:29:15.654Z,95718.38
2019-03-20T12:31:42.385Z,95722.66
2019-03-20T12:34:09.025Z,95719.64
2019-03-20T12:36:35.679Z,95717.75
2019-03-20T12:39:02.317Z,95715.03
2019-03-20T12:41:29.046Z,95713.86
2019-03-20T12:43:55.782Z,95709.80
2019-03-20T12:46:22.485Z,95709.22
2019-03-20T12:48:49.145Z,95714.45
2019-03-20T12:51:15.795Z,95717.77
2019-03-20T12:53:42.515Z,95718.45
2019-03-20T12:56:09.276Z,95715.95
2019-03-20T12:58:36.001Z,95713.08
2019-03-20T13:01:03.886Z,95713.30
2019-03-20T13:03:30.884Z,95713.56
2019-03-20T13:05:57.264Z,95723.02
2019-03-20T13:08:24.003Z,95721.60
2019-03-20T13:10:50.712Z,95724.94
2019-03-20T13:13:18.001Z,95714.58
2019-03-20T13:15:44.646Z,95718.40
2019-03-20T13:18:11.322Z,95714.20
2019-03-20T13:20:38.117Z,95712.30
2019-03-20T13:23:04.868Z,95721.09
2019-03-20T13:25:31.557Z,95725.49
2019-03-20T13:27:58.196Z,95727.34
2019-03-20T13:30:24.863Z,95722.23
2019-03-20T13:32:51.508Z,95725.79
2019-03-20T13:35:18.158Z,95722.58
2019-03-20T13:37:44.842Z,95714.83
2019-03-20T13:40:14.584Z,95726.85
2019-03-20T13:42:38.129Z,95726.58
2019-03-20T13:45:04.827Z,95730.65
2019-03-20T13:47:31.539Z,95728.41
2019-03-20T13:49:58.283Z,95725.82
2019-03-20T13:52:24.924Z,95729.72
2019-03-20T13:54:51.599Z,95726.69
2019-03-20T13:57:18.283Z,95727.69
2019-03-20T13:59:44.967Z,95723.77
2019-03-20T14:02:11.676Z,95722.72
2019-03-20T14:04:38.325Z,95725.19
2019-03-20T14:07:05.007Z,95726.71
2019-03-20T14:09:31.802Z,95733.77
2019-03-20T14:11:58.457Z,95736.09
2019-03-20T14:14:25.124Z,95728.23
2019-03-20T14:16:51.774Z,95730.89
2019-03-20T14:19:18.558Z,95739.48
2019-03-20T14:21:45.270Z,95738.30
2019-03-20T14:24:11.967Z,95735.71
2019-03-20T14:26:38.665Z,95734.70
2019-03-20T14:29:05.518Z,95725.05
2019-03-20T14:31:32.156Z,95727.52
2019-03-20T14:33:58.979Z,95736.22
2019-03-20T14:36:25.632Z,95731.11
2019-03-20T14:38:52.273Z,95733.14
2019-03-20T14:41:21.747Z,95736.27
2019-03-20T14:43:45.655Z,95740.33
2019-03-20T14:46:12.346Z,95746.13
2019-03-20T14:48:41.096Z,95753.88
2019-03-20T14:51:07.813Z,95745.67
2019-03-20T14:53:34.468Z,95759.27
2019-03-20T14:56:01.291Z,95757.08
2019-03-20T14:58:28.025Z,95761.20
2019-03-20T15:00:54.758Z,95764.91
2019-03-20T15:03:21.424Z,95767.12
2019-03-20T15:05:48.083Z,95768.68
2019-03-20T15:08:14.766Z,95769.95
2019-03-20T15:10:45.914Z,95774.61
2019-03-20T15:13:08.171Z,95778.78
2019-03-20T15:15:34.812Z,95778.56
2019-03-20T15:18:01.464Z,95774.64
2019-03-20T15:20:28.284Z,95782.02
2019-03-20T15:22:54.926Z,95784.30
2019-03-20T15:25:21.581Z,95786.98
2019-03-20T15:27:48.244Z,95785.18
2019-03-20T15:30:14.923Z,95792.84
2019-03-20T15:32:41.564Z,95797.09
2019-03-20T15:35:08.616Z,95803.27
2019-03-20T15:37:35.268Z,95802.41
2019-03-20T15:40:01.951Z,95814.91
2019-03-20T15:42:28.618Z,95811.09
2019-03-20T15:44:55.265Z,95818.48
2019-03-20T15:47:21.918Z,95830.63
2019-03-20T15:49:48.554Z,95828.22
2019-03-20T15:52:15.206Z,95828.62
2019-03-20T15:54:41.951Z,95838.29
2019-03-20T15:57:08.487Z,95845.99
2019-03-20T15:59:35.145Z,95843.97
2019-03-20T16:02:01.802Z,95849.58
2019-03-20T16:04:28.455Z,95855.08
2019-03-20T16:06:55.092Z,95863.95
2019-03-20T16:09:21.745Z,95858.20
2019-03-20T16:11:48.426Z,95865.16
2019-03-20T16:14:15.080Z,95869.81
2019-03-20T16:16:41.757Z,95873.86
2019-03-20T16:19:08.410Z,95881.70
2019-03-20T16:21:35.053Z,95877.95
2019-03-20T16:24:01.702Z,95888.94
2019-03-20T16:26:28.340Z,95900.77
2019-03-20T16:28:55.009Z,95897.98
2019-03-20T16:31:21.649Z,95905.11
2019-03-20T16:33:48.296Z,95912.01
2019-03-20T16:36:14.944Z,95910.47
2019-03-20T16:38:41.596Z,95916.67
2019-03-20T16:41:16.392Z,95919.92
2019-03-20T16:43:34.879Z,95923.59
2019-03-20T16:46:01.557Z,95930.56
2019-03-20T16:48:28.195Z,95933.84
2019-03-20T16:50:54.828Z,95937.02
2019-03-20T16:53:21.492Z,95941.31
2019-03-20T16:55:48.159Z,95944.57
2019-03-20T16:58:14.816Z,95944.36
2019-03-20T17:00:41.462Z,95951.31
2019-03-20T17:03:08.196Z,95959.14
2019-03-20T17:05:34.834Z,95966.90
2019-03-20T17:08:01.476Z,95969.06
2019-03-20T17:10:28.134Z,95975.02
2019-03-20T17:12:54.793Z,95978.28
2019-03-20T17:15:21.441Z,95986.41
2019-03-20T17:17:48.080Z,95995.25
2019-03-20T17:20:14.731Z,96003.61
2019-03-20T17:22:42.127Z,96008.41
2019-03-20T17:25:08.120Z,96018.02
2019-03-20T17:27:34.760Z,96019.14
2019-03-20T17:30:01.406Z,96019.67
2019-03-20T17:32:28.048Z,96028.53
2019-03-20T17:34:54.704Z,96032.09
2019-03-20T17:37:21.351Z,96033.59
2019-03-20T17:39:49.222Z,96027.66
2019-03-20T17:42:14.633Z,96044.73
2019-03-20T17:44:41.284Z,96046.61
2019-03-20T17:47:07.932Z,96045.22
2019-03-20T17:49:34.564Z,96053.06
2019-03-20T17:52:01.221Z,96049.16
2019-03-20T17:54:27.897Z,96050.28
2019-03-20T17:56:54.537Z,96056.98
2019-03-20T17:59:21.267Z,96060.27
2019-03-20T18:01:47.917Z,96062.31
2019-03-20T18:04:14.585Z,96065.73
2019-03-20T18:06:41.270Z,96070.15
2019-03-20T18:09:07.860Z,96072.80
2019-03-20T18:11:34.504Z,96079.61
2019-03-20T18:14:01.172Z,96085.45
2019-03-20T18:16:27.816Z,96090.12
2019-03-20T18:18:54.459Z,96096.06
2019-03-20T18:21:21.125Z,96101.88
2019-03-20T18:23:47.787Z,96098.95
2019-03-20T18:26:14.433Z,96099.03
2019-03-20T18:28:41.095Z,96101.98
2019-03-20T18:31:07.738Z,96103.83
2019-03-20T18:33:34.381Z,96106.50
2019-03-20T18:36:01.051Z,96113.56
2019-03-20T18:38:27.690Z,96116.63
2019-03-20T18:40:54.338Z,96119.52
2019-03-20T18:43:20.991Z,96135.44
2019-03-20T18:45:47.642Z,96124.83
2019-03-20T18:48:14.302Z,96128.37
2019-03-20T18:50:40.976Z,96130.88
2019-03-20T18:53:07.632Z,96131.02
2019-03-20T18:55:34.346Z,96132.13
2019-03-20T18:58:00.981Z,96140.23
2019-03-20T19:00:27.627Z,96142.00
2019-03-20T19:02:54.292Z,96142.34
2019-03-20T19:05:20.978Z,96140.70
2019-03-20T19:07:47.628Z,96134.72
2019-03-20T19:10:14.269Z,96145.41
2019-03-20T19:12:41.007Z,96144.74
2019-03-20T19:15:07.671Z,96148.14
2019-03-20T19:17:34.317Z,96153.22
2019-03-20T19:20:01.005Z,96151.55
2019-03-20T19:22:27.658Z,96151.69
2019-03-20T19:24:54.317Z,96159.65
2019-03-20T19:27:20.965Z,96152.31
2019-03-20T19:29:47.618Z,96157.59
2019-03-20T19:32:14.267Z,96154.70
2019-03-20T19:34:40.924Z,96162.91
2019-03-20T19:37:07.575Z,96161.28
2019-03-20T19:39:34.241Z,96169.08
2019-03-20T19:42:00.884Z,96171.72
2019-03-20T19:44:27.546Z,96170.72
2019-03-20T19:46:55.599Z,96172.72
2019-03-20T19:49:20.824Z,96169.95
2019-03-20T19:51:47.472Z,96170.57
2019-03-20T19:54:14.109Z,96168.18
2019-03-20T19:56:40.794Z,96164.25
2019-03-20T19:59:07.477Z,96172.72
2019-03-20T20:01:34.124Z,96171.71
2019-03-20T20:04:00.817Z,96173.23
2019-03-20T20:06:27.415Z,96179.03
2019-03-20T20:08:54.065Z,96176.61
2019-03-20T20:11:20.709Z,96178.75
2019-03-20T20:13:47.384Z,96180.00
2019-03-20T20:16:14.025Z,96185.94
2019-03-20T20:18:40.706Z,96184.40
2019-03-20T20:21:07.360Z,96179.59
2019-03-20T20:23:34.664Z,96181.37
2019-03-20T20:26:01.349Z,96187.78
2019-03-20T20:28:27.957Z,96188.55
2019-03-20T20:30:54.715Z,96188.78
2019-03-20T20:33:21.362Z,96189.27
2019-03-20T20:35:48.097Z,96186.48
2019-03-20T20:38:14.737Z,96191.41
2019-03-20T20:40:41.403Z,96187.85
2019-03-20T20:43:08.058Z,96193.17
2019-03-20T20:45:34.745Z,96193.27
2019-03-20T20:48:01.483Z,96194.56
2019-03-20T20:50:28.129Z,96196.81
2019-03-20T20:52:54.768Z,96191.48
2019-03-20T20:55:21.420Z,96197.28
2019-03-20T20:57:48.120Z,96198.88
2019-03-20T21:00:14.752Z,96198.11
2019-03-20T21:02:41.399Z,96195.94
2019-03-20T21:05:08.054Z,96201.09
2019-03-20T21:07:34.698Z,96202.23
2019-03-20T21:10:01.395Z,96201.72
2019-03-20T21:12:28.033Z,96202.95
2019-03-20T21:14:54.681Z,96203.48
2019-03-20T21:17:21.327Z,96207.11
2019-03-20T21:19:47.982Z,96212.91
2019-03-20T21:22:14.630Z,96205.86
2019-03-20T21:24:41.274Z,96203.70
2019-03-20T21:27:07.923Z,96211.76
2019-03-20T21:29:34.565Z,96209.57
2019-03-20T21:32:01.209Z,96209.09
2019-03-20T21:34:27.845Z,96215.03
2019-03-20T21:36:54.496Z,96216.53
2019-03-20T21:39:21.149Z,96213.50
2019-03-20T21:41:47.794Z,96216.66
2019-03-20T21:44:14.436Z,96220.05
2019-03-20T21:46:41.094Z,96220.69
2019-03-20T21:49:07.772Z,96220.84
2019-03-20T21:51:34.456Z,96223.20
2019-03-20T21:54:01.110Z,96224.20
2019-03-20T21:56:27.751Z,96219.73
2019-03-20T21:58:54.389Z,96222.13
2019-03-20T22:01:21.032Z,96220.89
2019-03-20T22:03:47.705Z,96225.15
2019-03-20T22:06:14.325Z,96217.57
2019-03-20T22:08:40.995Z,96219.48
2019-03-20T22:11:07.679Z,96215.88
2019-03-20T22:13:34.322Z,96220.57
2019-03-20T22:16:00.967Z,96218.81
2019-03-20T22:18:27.635Z,96222.20
2019-03-20T22:20:54.326Z,96217.62
2019-03-20T22:23:20.967Z,96218.23
2019-03-20T22:25:47.619Z,96227.31
2019-03-20T22:28:14.272Z,96226.80
2019-03-20T22:30:40.954Z,96229.03
2019-03-20T22:33:07.601Z,96230.69
2019-03-20T22:35:34.242Z,96233.69
2019-03-20T22:38:00.896Z,96231.53
2019-03-20T22:40:27.541Z,96230.31
2019-03-20T22:42:54.265Z,96230.64
2019-03-20T22:45:20.925Z,96236.56
2019-03-20T22:47:47.632Z,96236.70
2019-03-20T22:50:14.277Z,96232.02
2019-03-20T22:52:40.957Z,96233.86
2019-03-20T22:55:07.658Z,96240.47
2019-03-20T22:57:34.347Z,96240.47
2019-03-20T23:00:01.006Z,96244.87
2019-03-20T23:02:27.646Z,96244.70
2019-03-20T23:04:54.332Z,96248.00
2019-03-20T23:07:20.971Z,96245.18
2019-03-20T23:09:47.628Z,96245.33
2019-03-20T23:12:14.271Z,96248.98
2019-03-20T23:14:40.932Z,96242.41
2019-03-20T23:17:07.579Z,96251.37
2019-03-20T23:19:34.243Z,96249.47
2019-03-20T23:22:00.934Z,96247.72
2019-03-20T23:24:27.587Z,96246.89
2019-03-20T23:26:54.227Z,96245.23
2019-03-20T23:29:20.900Z,96248.46
2019-03-20T23:31:47.543Z,96252.38
2019-03-20T23:34:14.338Z,96247.77
2019-03-20T23:36:40.974Z,96245.78
2019-03-20T23:39:07.619Z,96244.88
2019-03-20T23:41:34.276Z,96248.15
2019-03-20T23:44:00.962Z,96249.56
2019-03-20T23:46:27.642Z,96256.86
2019-03-20T23:48:54.340Z,96245.56
2019-03-20T23:51:20.975Z,96252.55
2019-03-20T23:53:47.613Z,96256.84
2019-03-20T23:56:14.271Z,96248.51
2019-03-20T23:58:40.921Z,96254.25
